Time;durP1;ratioP1;P1;durP2;ratioP2;P2;SDS_P1;SDS_P2;PMS_P1;PMS_P2;Temp;Humidity;BMP_temperature;BMP_pressure;BME280_temperature;BME280_humidity;BME280_pressure;Samples;Min_cycle;Max_cycle;Signal;HPM_P1;HPM_P2
2022/08/08 00:00:36;;;;;;;;;3.75;3.00;;;;;20.52;44.31;102074.69;5087405;28;49474;-76
2022/08/08 00:03:32;;;;;;;;;2.50;2.50;;;;;20.59;44.46;102080.91;5086504;28;50846;-73
2022/08/08 00:06:08;;;;;;;;;3.50;3.50;;;;;20.60;44.57;102093.38;5087534;28;49217;-71
2022/08/08 00:09:01;;;;;;;;;3.00;3.00;;;;;20.53;44.92;102100.47;5086449;28;49290;-71
2022/08/08 00:11:41;;;;;;;;;2.75;2.75;;;;;20.49;44.89;102098.69;5069257;28;49646;-71
2022/08/08 00:14:31;;;;;;;;;3.75;3.75;;;;;20.44;44.94;102078.22;5087310;27;50654;-71
2022/08/08 00:17:18;;;;;;;;;3.00;3.00;;;;;20.24;45.05;102047.06;5087892;27;49573;-74
2022/08/08 00:19:49;;;;;;;;;4.50;4.50;;;;;20.45;45.29;102093.34;5086744;28;49388;-77
2022/08/08 00:22:24;;;;;;;;;3.00;3.00;;;;;20.22;45.21;102040.84;5087337;27;49249;-71
2022/08/08 00:24:55;;;;;;;;;3.25;3.25;;;;;20.37;45.09;102082.66;5085581;28;50696;-77
2022/08/08 00:27:21;;;;;;;;;3.25;2.50;;;;;20.34;45.31;102077.28;5086850;28;49578;-73
2022/08/08 00:30:00;;;;;;;;;3.00;3.00;;;;;20.40;45.43;102085.31;5086751;28;49428;-71
2022/08/08 00:32:49;;;;;;;;;4.75;4.00;;;;;20.32;45.88;102079.06;5086574;27;49410;-77
2022/08/08 00:35:48;;;;;;;;;3.25;2.25;;;;;20.24;45.69;102080.84;5086300;28;50771;-74
2022/08/08 00:38:31;;;;;;;;;4.00;2.75;;;;;20.23;46.12;102073.72;5086262;28;49618;-78
2022/08/08 00:41:34;;;;;;;;;4.25;4.25;;;;;20.24;45.94;102067.50;5068350;28;49341;-75
2022/08/08 00:44:18;;;;;;;;;3.25;3.25;;;;;20.17;46.31;102076.38;5085889;28;49636;-72
2022/08/08 00:47:21;;;;;;;;;3.25;3.00;;;;;20.17;45.98;102079.97;5086717;28;50646;-70
2022/08/08 00:50:11;;;;;;;;;4.00;4.00;;;;;20.17;46.51;102077.28;5086846;28;49537;-74
2022/08/08 00:53:06;;;;;;;;;3.00;3.00;;;;;20.18;46.16;102064.84;5086669;27;49496;-75
2022/08/08 00:56:06;;;;;;;;;5.00;4.75;;;;;20.13;46.42;102071.94;5067802;28;49388;-75
2022/08/08 00:58:52;;;;;;;;;4.50;4.50;;;;;20.14;46.88;102068.38;5085746;28;49561;-75
2022/08/08 01:01:36;;;;;;;;;3.00;3.00;;;;;20.12;46.80;102059.50;5085402;28;49546;-78
2022/08/08 01:04:39;;;;;;;;;5.25;4.25;;;;;20.10;46.63;102064.81;5086379;28;49669;-77
2022/08/08 01:07:04;;;;;;;;;5.00;5.00;;;;;20.08;46.87;102063.06;5086060;28;49986;-77
2022/08/08 01:10:07;;;;;;;;;3.00;3.00;;;;;19.97;47.20;102065.66;5085374;28;56175;-74
2022/08/08 01:12:53;;;;;;;;;4.00;4.00;;;;;19.92;47.26;102056.78;5085830;27;49432;-73
2022/08/08 01:15:55;;;;;;;;;5.00;4.00;;;;;19.92;47.25;102057.66;5085997;28;49798;-75
2022/08/08 01:18:42;;;;;;;;;6.00;5.00;;;;;19.88;47.32;102054.97;5085857;28;49554;-76
2022/08/08 01:21:48;;;;;;;;;4.00;4.00;;;;;19.88;47.61;102050.56;5068250;28;51504;-76
2022/08/08 01:24:26;;;;;;;;;3.75;2.75;;;;;19.85;47.44;102050.53;5066884;28;49459;-74
2022/08/08 01:27:24;;;;;;;;;3.50;3.50;;;;;19.82;47.57;102052.31;5086587;28;49367;-77
2022/08/08 01:30:21;;;;;;;;;5.25;5.00;;;;;19.74;47.89;102041.63;5085677;28;49401;-76
2022/08/08 01:33:20;;;;;;;;;5.25;5.25;;;;;19.82;47.74;102045.19;5067594;28;49453;-77
2022/08/08 01:36:12;;;;;;;;;4.00;4.00;;;;;19.72;48.03;102044.28;5082050;28;49230;-70
2022/08/08 01:38:55;;;;;;;;;5.00;5.00;;;;;19.76;48.12;102047.84;5086911;28;49879;-71
2022/08/08 01:41:30;;;;;;;;;4.00;4.00;;;;;19.76;48.01;102047.84;5064418;28;49542;-76
2022/08/08 01:44:25;;;;;;;;;7.25;4.75;;;;;19.67;47.84;102048.69;5065041;28;49836;-69
2022/08/08 01:47:16;;;;;;;;;4.75;4.00;;;;;19.41;48.04;102007.72;5066081;28;49445;-73
2022/08/08 01:50:02;;;;;;;;;8.00;6.50;;;;;19.54;48.26;102037.97;5080993;28;49433;-76
2022/08/08 01:53:09;;;;;;;;;4.75;4.75;;;;;19.66;48.17;102062.00;5085303;28;49525;-76
2022/08/08 01:55:40;;;;;;;;;4.50;4.50;;;;;19.54;48.16;102037.97;5084925;27;50333;-75
2022/08/08 01:58:40;;;;;;;;;5.00;5.00;;;;;19.51;48.28;102040.63;5084627;28;49531;-77
2022/08/08 02:01:20;;;;;;;;;6.00;6.00;;;;;19.55;48.41;102061.94;5085093;28;49492;-76
2022/08/08 02:04:00;;;;;;;;;5.50;5.50;;;;;19.49;48.78;102055.69;5070178;28;49567;-75
2022/08/08 02:06:55;;;;;;;;;7.75;6.50;;;;;19.50;48.75;102060.16;5065281;28;49936;-75
2022/08/08 02:09:37;;;;;;;;;5.50;5.00;;;;;19.35;48.98;102029.00;5083610;28;49679;-73
2022/08/08 02:12:12;;;;;;;;;6.00;5.50;;;;;19.36;49.08;102046.75;5088962;28;49547;-75
2022/08/08 02:14:47;;;;;;;;;5.50;5.00;;;;;19.05;49.34;101997.78;5088568;28;49546;-74
2022/08/08 02:17:23;;;;;;;;;8.00;5.50;;;;;19.37;49.33;102056.50;5088652;28;49701;-76
2022/08/08 02:20:25;;;;;;;;;6.00;5.50;;;;;19.31;49.59;102062.72;5088100;28;49467;-77
2022/08/08 02:23:04;;;;;;;;;5.75;5.75;;;;;19.33;49.55;102055.63;5063341;28;49756;-77
2022/08/08 02:25:35;;;;;;;;;6.75;6.00;;;;;19.28;49.69;102054.69;5088394;28;49503;-77
2022/08/08 02:28:03;;;;;;;;;5.75;5.75;;;;;19.25;49.80;102049.34;5088665;27;51776;-74
2022/08/08 02:31:02;;;;;;;;;6.50;6.50;;;;;19.24;49.73;102044.91;5087372;28;49421;-77
2022/08/08 02:34:00;;;;;;;;;7.00;6.00;;;;;19.21;50.03;102046.69;5088111;28;49610;-76
2022/08/08 02:36:42;;;;;;;;;10.00;8.50;;;;;19.14;50.06;102045.75;5088331;28;49672;-76
2022/08/08 02:40:05;;;;;;;;;6.00;6.00;;;;;19.14;50.21;102048.41;5087879;28;49683;-77
2022/08/08 02:42:48;;;;;;;;;6.25;5.00;;;;;19.12;50.38;102050.19;5005767;28;49629;-77
2022/08/08 02:45:55;;;;;;;;;6.75;6.75;;;;;19.09;50.52;102056.34;5005171;28;49753;-77
2022/08/08 02:48:39;;;;;;;;;5.75;5.00;;;;;19.07;50.46;102054.56;5048164;28;50030;-78
2022/08/08 02:51:41;;;;;;;;;5.25;5.25;;;;;19.04;50.64;102050.13;5089694;28;50382;-75
2022/08/08 02:54:36;;;;;;;;;8.50;6.00;;;;;19.05;50.56;102051.91;5087809;27;49665;-73
2022/08/08 02:57:07;;;;;;;;;5.25;5.25;;;;;19.02;50.78;102043.91;5088001;27;49409;-77
2022/08/08 03:00:13;;;;;;;;;6.25;6.25;;;;;18.97;50.86;102063.38;5069442;28;49841;-75
2022/08/08 03:03:03;;;;;;;;;9.50;7.75;;;;;18.95;50.88;102051.84;5069915;28;51616;-75
2022/08/08 03:06:05;;;;;;;;;5.50;5.50;;;;;18.97;50.78;102056.28;5069436;28;49404;-76
2022/08/08 03:08:45;;;;;;;;;5.50;5.00;;;;;18.95;51.01;102063.38;5087041;28;49758;-76
2022/08/08 03:11:48;;;;;;;;;8.00;5.50;;;;;18.94;51.27;102063.38;5087542;28;49579;-77
2022/08/08 03:14:54;;;;;;;;;5.25;5.25;;;;;18.95;51.08;102058.06;5087373;28;49936;-77
2022/08/08 03:17:44;;;;;;;;;7.75;7.75;;;;;18.57;51.25;102007.19;5087762;27;49588;-77
2022/08/08 03:20:10;;;;;;;;;6.00;6.00;;;;;18.88;51.26;102064.19;5070177;28;49558;-78
2022/08/08 03:22:45;;;;;;;;;8.25;8.25;;;;;18.86;51.62;102064.19;5087709;27;49324;-75
2022/08/08 03:25:12;;;;;;;;;6.00;5.75;;;;;18.57;51.42;102020.50;5069188;28;50899;-78
2022/08/08 03:27:44;;;;;;;;;8.25;7.50;;;;;18.90;51.63;102069.53;5087563;27;49707;-75
2022/08/08 03:30:12;;;;;;;;;6.50;6.50;;;;;17.85;51.67;101883.44;5087545;28;49555;-78
2022/08/08 03:35:23;;;;;;;;;10.75;9.25;;;;;18.69;51.56;102036.56;5088608;27;49277;-79
2022/08/08 03:37:48;;;;;;;;;6.50;6.50;;;;;18.88;51.66;102069.53;5090454;28;49362;-78
2022/08/08 03:40:16;;;;;;;;;9.50;8.50;;;;;18.90;51.68;102069.53;5090056;28;49654;-78
2022/08/08 03:42:42;;;;;;;;;6.75;6.50;;;;;18.87;51.86;102070.41;5090587;28;49443;-78
2022/08/08 03:45:21;;;;;;;;;8.50;7.00;;;;;18.66;51.89;102028.56;5088235;28;49719;-75
2022/08/08 03:48:01;;;;;;;;;7.00;6.00;;;;;18.85;51.97;102072.16;5087168;28;49338;-78
2022/08/08 03:50:28;;;;;;;;;8.75;7.50;;;;;18.83;52.19;102068.63;5087821;27;49802;-78
2022/08/08 03:52:54;;;;;;;;;7.00;7.00;;;;;18.74;52.19;102064.09;5087591;27;49549;-77
2022/08/08 03:55:21;;;;;;;;;7.25;6.25;;;;;18.63;52.24;102040.94;5087134;28;50447;-75
2022/08/08 03:57:52;;;;;;;;;12.00;7.75;;;;;18.74;51.85;102072.09;5086643;28;49554;-78
2022/08/08 04:00:20;;;;;;;;;9.00;7.00;;;;;18.69;52.17;102054.28;5086978;28;49819;-78
2022/08/08 04:03:00;;;;;;;;;8.75;8.75;;;;;18.71;52.40;102071.16;5087382;28;49712;-72
2022/08/08 04:05:31;;;;;;;;;6.50;5.75;;;;;18.57;52.42;102071.91;5086420;28;49750;-72
2022/08/08 04:07:57;;;;;;;;;8.00;7.00;;;;;18.65;52.37;102087.97;5086921;28;49323;-76
2022/08/08 04:10:23;;;;;;;;;7.75;7.75;;;;;18.61;52.41;102091.44;5086740;28;49582;-76
2022/08/08 04:12:48;;;;;;;;;8.50;7.00;;;;;18.28;52.66;102039.72;5086618;28;49382;-71
2022/08/08 04:15:14;;;;;;;;;7.50;7.50;;;;;18.41;52.61;102062.00;5086785;28;50279;-77
2022/08/08 04:17:39;;;;;;;;;13.00;9.25;;;;;18.62;52.79;102090.53;5087565;28;49583;-77
2022/08/08 04:20:05;;;;;;;;;11.00;10.00;;;;;18.61;52.66;102091.44;5087315;28;49239;-75
2022/08/08 04:22:31;;;;;;;;;7.75;7.75;;;;;18.61;52.66;102091.44;5086950;28;49555;-74
2022/08/08 04:24:56;;;;;;;;;6.75;6.00;;;;;18.58;52.89;102086.09;5086220;28;49997;-77
2022/08/08 04:27:22;;;;;;;;;7.00;6.00;;;;;18.48;52.75;102078.91;5086988;28;49460;-78
2022/08/08 04:29:47;;;;;;;;;8.50;7.75;;;;;18.57;52.83;102101.16;5086163;27;49368;-77
2022/08/08 04:32:13;;;;;;;;;9.00;7.00;;;;;18.48;52.93;102095.75;5086736;28;49346;-75
2022/08/08 04:34:39;;;;;;;;;9.75;7.25;;;;;18.48;53.04;102084.22;5087076;28;50250;-78
2022/08/08 04:37:04;;;;;;;;;7.25;7.25;;;;;18.51;53.10;102093.13;5087032;28;49601;-75
2022/08/08 04:39:30;;;;;;;;;8.50;8.00;;;;;18.36;53.04;102070.81;5085799;28;52701;-75
2022/08/08 04:41:56;;;;;;;;;7.00;6.25;;;;;18.49;53.15;102105.50;5086311;28;49677;-78
2022/08/08 04:44:21;;;;;;;;;6.50;6.50;;;;;18.25;53.03;102060.09;5085191;28;49599;-77
2022/08/08 04:46:46;;;;;;;;;8.25;7.00;;;;;18.43;53.22;102096.56;5085849;28;49676;-76
2022/08/08 04:49:12;;;;;;;;;9.00;8.00;;;;;18.31;53.43;102066.34;5085956;27;49225;-78
2022/08/08 04:51:37;;;;;;;;;7.50;7.50;;;;;18.47;52.87;102098.41;5086544;27;49466;-72
2022/08/08 04:54:02;;;;;;;;;9.25;8.25;;;;;18.17;52.94;102057.34;5085816;28;49857;-78
2022/08/08 04:56:28;;;;;;;;;8.25;7.50;;;;;18.11;53.05;102051.06;5086017;28;49561;-75
2022/08/08 04:58:53;;;;;;;;;8.25;8.25;;;;;18.41;53.43;102104.53;5086011;28;49710;-78
2022/08/08 05:01:19;;;;;;;;;9.00;9.00;;;;;18.43;53.33;102101.88;5086552;28;49762;-79
2022/08/08 05:03:44;;;;;;;;;9.25;7.00;;;;;18.41;53.36;102112.50;5085586;28;49993;-78
2022/08/08 05:06:09;;;;;;;;;8.50;8.50;;;;;18.41;53.63;102106.31;5071411;28;50077;-77
2022/08/08 05:08:35;;;;;;;;;8.25;8.25;;;;;18.38;53.52;102108.94;5067543;28;49349;-74
2022/08/08 05:11:00;;;;;;;;;5.50;4.75;;;;;18.15;53.58;102076.81;5067480;28;49451;-77
2022/08/08 05:13:25;;;;;;;;;10.25;9.00;;;;;18.20;53.91;102093.69;5065499;28;49653;-77
2022/08/08 05:15:51;;;;;;;;;9.00;9.00;;;;;18.21;53.81;102099.03;5066883;28;49504;-76
2022/08/08 05:18:16;;;;;;;;;10.75;10.25;;;;;18.29;53.90;102099.09;5068244;28;49433;-71
2022/08/08 05:20:41;;;;;;;;;8.25;8.25;;;;;17.99;53.71;102055.38;5066668;28;49971;-76
2022/08/08 05:23:07;;;;;;;;;11.50;10.25;;;;;18.33;53.99;102116.84;5066194;28;49488;-75
2022/08/08 05:25:32;;;;;;;;;11.00;11.00;;;;;18.06;54.02;102066.97;5065771;28;49610;-78
2022/08/08 05:27:57;;;;;;;;;8.00;7.75;;;;;18.18;53.68;102083.06;5066876;28;49516;-77
2022/08/08 05:30:23;;;;;;;;;8.25;8.25;;;;;18.39;53.72;102132.88;5066339;28;49627;-78
2022/08/08 05:32:48;;;;;;;;;10.75;10.00;;;;;18.16;53.98;102092.78;5065817;28;53335;-77
2022/08/08 05:35:14;;;;;;;;;7.25;7.25;;;;;18.15;54.01;102103.41;5083907;28;49345;-72
2022/08/08 05:37:46;;;;;;;;;10.00;9.00;;;;;18.31;54.07;102140.78;5083367;28;49516;-77
2022/08/08 05:40:13;;;;;;;;;10.75;10.00;;;;;18.28;54.15;102138.09;5085796;28;49612;-76
2022/08/08 05:42:41;;;;;;;;;11.75;11.25;;;;;18.36;54.18;102139.94;5088623;28;49677;-76
2022/08/08 05:45:07;;;;;;;;;11.00;9.00;;;;;18.20;53.94;102107.88;5089034;28;49597;-75
2022/08/08 05:47:35;;;;;;;;;10.25;10.00;;;;;18.21;54.07;102100.78;5085385;28;49363;-76
2022/08/08 05:50:05;;;;;;;;;10.25;8.75;;;;;18.31;53.97;102119.50;5069472;28;49524;-76
2022/08/08 05:52:34;;;;;;;;;10.00;9.75;;;;;18.30;53.83;102115.06;5070057;28;49962;-75
2022/08/08 05:55:00;;;;;;;;;12.25;9.25;;;;;18.48;53.89;102142.72;5068781;28;49492;-77
2022/08/08 05:57:27;;;;;;;;;12.75;12.00;;;;;18.52;53.72;102136.53;5069465;28;49516;-77
2022/08/08 05:59:57;;;;;;;;;28.25;18.75;;;;;18.05;53.72;102054.56;5069951;28;49488;-77
2022/08/08 06:05:10;;;;;;;;;9.00;8.75;;;;;18.55;53.86;102145.47;5070002;28;49667;-77
2022/08/08 06:07:39;;;;;;;;;12.50;10.00;;;;;18.49;53.85;102133.88;5069389;28;49440;-77
2022/08/08 06:10:05;;;;;;;;;11.00;10.00;;;;;18.66;53.70;102145.59;5068599;28;49377;-76
2022/08/08 06:12:32;;;;;;;;;8.00;7.25;;;;;18.58;53.44;102141.94;5068213;28;49591;-77
2022/08/08 06:15:03;;;;;;;;;10.75;9.25;;;;;18.45;53.49;102114.34;5068533;28;49259;-78
2022/08/08 06:17:39;;;;;;;;;10.75;8.75;;;;;18.37;53.62;102088.56;5082173;28;49382;-76
2022/08/08 06:20:08;;;;;;;;;10.00;9.75;;;;;18.59;53.32;102125.09;5088307;28;49607;-77
2022/08/08 06:22:34;;;;;;;;;11.75;10.75;;;;;18.73;53.48;102149.22;5089279;27;49790;-77
2022/08/08 06:24:59;;;;;;;;;10.50;10.50;;;;;18.65;53.09;102138.50;5088058;28;49382;-77
2022/08/08 06:27:46;;;;;;;;;13.25;10.00;;;;;18.66;53.05;102126.97;5088364;28;49431;-77
2022/08/08 06:30:13;;;;;;;;;6.25;6.25;;;;;18.82;53.03;102154.63;5088775;27;49820;-69
2022/08/08 06:32:43;;;;;;;;;9.00;9.00;;;;;18.99;52.85;102162.72;5087874;27;50676;-73
2022/08/08 06:35:11;;;;;;;;;13.50;10.75;;;;;18.95;52.95;102156.50;5088179;28;49738;-69
2022/08/08 06:37:37;;;;;;;;;10.25;10.25;;;;;19.07;53.04;102177.00;5088717;28;49504;-69
2022/08/08 06:40:07;;;;;;;;;9.75;9.25;;;;;19.01;52.83;102155.66;5088636;28;49585;-70
2022/08/08 06:42:35;;;;;;;;;9.00;8.25;;;;;19.11;52.71;102161.09;5088325;28;50048;-69
2022/08/08 06:45:02;;;;;;;;;10.50;9.50;;;;;19.25;52.52;102170.94;5087268;28;49562;-69
2022/08/08 06:47:28;;;;;;;;;14.75;12.75;;;;;19.21;52.17;102172.69;5087860;28;49313;-76
2022/08/08 06:49:54;;;;;;;;;13.00;10.50;;;;;19.13;52.30;102153.09;5088921;28;49926;-69
2022/08/08 06:52:20;;;;;;;;;12.00;12.00;;;;;19.16;52.62;102161.09;5087376;28;49840;-69
2022/08/08 06:54:47;;;;;;;;;11.50;8.25;;;;;19.07;52.20;102145.06;5070807;28;49321;-70
2022/08/08 06:57:12;;;;;;;;;15.75;11.25;;;;;19.13;52.29;102147.78;5088155;28;49423;-71
2022/08/08 06:59:38;;;;;;;;;8.75;7.00;;;;;18.96;52.38;102120.16;5073062;27;49574;-73
2022/08/08 07:02:04;;;;;;;;;13.25;11.75;;;;;19.37;52.01;102171.91;5069153;28;50392;-73
2022/08/08 07:04:38;;;;;;;;;17.75;14.00;;;;;19.45;52.06;102174.63;5069739;28;49342;-73
2022/08/08 07:07:09;;;;;;;;;16.25;11.75;;;;;19.34;51.79;102153.25;5087733;27;49453;-70
2022/08/08 07:09:47;;;;;;;;;9.25;8.00;;;;;19.53;51.28;102180.00;5088807;28;49509;-72
2022/08/08 07:12:21;;;;;;;;;10.25;9.75;;;;;19.41;51.15;102152.41;5087874;27;49471;-70
2022/08/08 07:14:51;;;;;;;;;11.00;9.75;;;;;19.70;51.27;102186.38;5087171;27;49139;-74
2022/08/08 07:17:20;;;;;;;;;11.50;8.00;;;;;19.66;50.87;102169.47;5088255;27;49614;-76
2022/08/08 07:19:57;;;;;;;;;12.75;11.25;;;;;19.74;51.13;102164.19;5089440;28;49812;-70
2022/08/08 07:22:34;;;;;;;;;9.50;9.50;;;;;19.82;50.29;102170.44;5089240;28;50343;-69
2022/08/08 07:25:03;;;;;;;;;16.25;11.75;;;;;19.86;50.36;102168.69;5090268;28;49827;-69
2022/08/08 07:27:44;;;;;;;;;13.25;10.50;;;;;19.97;49.86;102169.59;5084421;27;49622;-69
2022/08/08 07:30:11;;;;;;;;;10.25;9.00;;;;;20.09;49.62;102180.34;5057655;28;49614;-76
2022/08/08 07:32:38;;;;;;;;;7.00;7.00;;;;;20.22;49.51;102199.94;5069052;28;51205;-70
2022/08/08 07:35:05;;;;;;;;;8.00;7.75;;;;;20.32;49.35;102201.75;5076664;27;49546;-67
2022/08/08 07:37:32;;;;;;;;;11.50;10.00;;;;;20.23;48.96;102169.72;5091033;27;49661;-76
2022/08/08 07:39:57;;;;;;;;;10.25;9.00;;;;;20.32;48.52;102180.41;5073421;27;49700;-65
2022/08/08 07:42:24;;;;;;;;;10.50;8.75;;;;;20.38;48.68;102177.78;5083274;27;49649;-65
2022/08/08 07:44:50;;;;;;;;;10.50;9.00;;;;;20.44;48.57;102179.59;5079566;27;49405;-67
2022/08/08 07:47:16;;;;;;;;;10.00;9.50;;;;;20.60;48.42;102201.88;5068491;27;49531;-72
2022/08/08 07:49:41;;;;;;;;;8.25;7.25;;;;;20.49;48.73;102181.41;5070552;27;49416;-69
2022/08/08 07:52:11;;;;;;;;;8.75;8.75;;;;;20.56;48.24;102185.88;5084481;27;49705;-71
2022/08/08 07:54:53;;;;;;;;;9.75;9.00;;;;;20.57;48.36;102173.41;5074816;27;49439;-70
2022/08/08 07:57:51;;;;;;;;;10.50;10.50;;;;;20.81;47.88;102207.25;5066127;28;49991;-71
2022/08/08 08:00:17;;;;;;;;;9.00;9.00;;;;;20.76;47.54;102187.69;5079652;27;49688;-75
2022/08/08 08:03:03;;;;;;;;;7.75;7.00;;;;;20.88;47.75;102201.03;5073043;28;49691;-74
2022/08/08 08:05:29;;;;;;;;;7.25;7.25;;;;;20.92;47.67;102202.81;5080565;28;49673;-72
2022/08/08 08:08:16;;;;;;;;;7.75;7.50;;;;;20.84;47.65;102164.53;5086476;28;49155;-75
2022/08/08 08:10:44;;;;;;;;;6.75;6.75;;;;;21.11;47.15;102211.72;5087005;28;50178;-75
2022/08/08 08:13:28;;;;;;;;;5.00;2.50;;;;;21.18;46.86;102201.94;5086452;28;49720;-74
2022/08/08 08:16:06;;;;;;;;;12.75;9.75;;;;;21.27;46.91;102200.19;5086939;27;49652;-74
2022/08/08 08:18:38;;;;;;;;;12.00;10.75;;;;;21.25;46.76;102177.91;5087354;28;49516;-75
2022/08/08 08:21:05;;;;;;;;;20.25;11.75;;;;;21.43;46.51;102201.97;5087166;28;49466;-73
2022/08/08 08:23:30;;;;;;;;;9.50;9.50;;;;;21.44;46.14;102192.16;5085967;28;50191;-75
2022/08/08 08:25:55;;;;;;;;;10.00;10.00;;;;;21.48;46.30;102193.03;5086506;27;49499;-73
2022/08/08 08:28:21;;;;;;;;;7.00;6.50;;;;;21.49;45.93;102171.66;5086277;27;53828;-76
2022/08/08 08:30:46;;;;;;;;;6.00;6.00;;;;;21.74;45.90;102214.38;5086524;28;49532;-74
2022/08/08 08:33:12;;;;;;;;;10.50;6.50;;;;;21.66;45.53;102185.88;5067894;28;51888;-75
2022/08/08 08:35:38;;;;;;;;;7.00;7.00;;;;;21.60;45.50;102164.50;5086583;28;50008;-75
2022/08/08 08:38:04;;;;;;;;;8.00;8.00;;;;;21.87;44.79;102202.75;5087093;27;49653;-78
2022/08/08 08:40:30;;;;;;;;;7.25;5.75;;;;;21.91;44.49;102202.75;5086911;27;49365;-72
2022/08/08 08:42:55;;;;;;;;;5.75;5.75;;;;;21.82;44.25;102178.72;5086077;28;49570;-73
2022/08/08 08:45:21;;;;;;;;;9.75;9.75;;;;;21.85;44.57;102169.78;5086197;28;49668;-77
2022/08/08 08:47:49;;;;;;;;;9.75;8.75;;;;;21.94;44.41;102170.63;5086699;28;49347;-74
2022/08/08 08:50:14;;;;;;;;;10.50;9.00;;;;;22.16;43.91;102190.19;5086337;28;49620;-74
2022/08/08 08:52:42;;;;;;;;;6.00;5.00;;;;;22.22;43.84;102205.31;5067903;28;49443;-82
2022/08/08 08:55:12;;;;;;;;;6.50;6.00;;;;;21.79;43.13;102114.53;5066784;28;49435;-73
2022/08/08 08:57:41;;;;;;;;;7.75;6.50;;;;;22.19;42.63;102186.59;5072238;28;49394;-72
2022/08/08 09:00:07;;;;;;;;;6.50;6.50;;;;;22.34;43.02;102204.38;5085432;28;49514;-71
2022/08/08 09:02:34;;;;;;;;;7.75;6.25;;;;;21.91;42.83;102114.50;5085609;27;49528;-71
2022/08/08 09:05:03;;;;;;;;;7.75;7.00;;;;;22.55;42.42;102193.53;5067684;28;49460;-68
2022/08/08 09:07:32;;;;;;;;;6.75;5.50;;;;;22.58;41.92;102204.22;5086310;27;49672;-71
2022/08/08 09:09:59;;;;;;;;;8.75;7.25;;;;;22.62;42.23;102200.66;5086007;28;49542;-70
2022/08/08 09:12:25;;;;;;;;;4.75;4.75;;;;;22.39;42.43;102149.03;5084214;28;49589;-72
2022/08/08 09:14:55;;;;;;;;;6.00;6.00;;;;;22.74;42.46;102199.66;5074223;28;49299;-71
2022/08/08 09:17:23;;;;;;;;;9.00;5.00;;;;;22.31;42.25;102125.03;5068519;28;49342;-71
2022/08/08 09:19:52;;;;;;;;;6.25;6.25;;;;;22.77;42.07;102203.19;5067817;28;49911;-71
2022/08/08 09:22:20;;;;;;;;;5.00;5.00;;;;;22.36;41.74;102130.34;5067156;28;50329;-72
2022/08/08 09:24:47;;;;;;;;;9.75;8.25;;;;;22.77;41.61;102187.13;5066824;27;49417;-72
2022/08/08 09:27:15;;;;;;;;;7.25;7.25;;;;;22.91;41.49;102192.44;5065942;28;49557;-71
2022/08/08 09:30:01;;;;;;;;;8.25;7.00;;;;;22.98;41.50;102183.47;5058764;28;50064;-72
2022/08/08 09:32:53;;;;;;;;;8.25;7.25;;;;;23.09;41.42;102180.69;5074019;28;50035;-71
2022/08/08 09:35:24;;;;;;;;;7.50;7.50;;;;;23.20;40.87;102181.50;5080683;28;49788;-71
2022/08/08 09:37:56;;;;;;;;;6.50;6.50;;;;;23.23;40.80;102180.56;5076292;27;49736;-72
2022/08/08 09:40:26;;;;;;;;;6.50;5.25;;;;;23.27;40.72;102172.50;5078271;28;49787;-72
2022/08/08 09:43:14;;;;;;;;;3.00;3.00;;;;;23.34;40.63;102181.34;5085494;28;49621;-72
2022/08/08 09:46:01;;;;;;;;;8.00;6.25;;;;;23.39;39.94;102176.84;5073338;27;49766;-72
2022/08/08 09:48:34;;;;;;;;;5.50;4.50;;;;;23.46;39.95;102181.25;5070890;28;49862;-72
2022/08/08 09:51:00;;;;;;;;;7.25;6.75;;;;;23.47;39.70;102158.03;5071759;28;49829;-72
2022/08/08 09:53:35;;;;;;;;;8.00;7.50;;;;;23.62;39.83;102177.53;5071042;28;50802;-72
2022/08/08 09:56:03;;;;;;;;;5.50;5.50;;;;;23.70;39.02;102172.09;5075122;28;49685;-72
2022/08/08 09:58:39;;;;;;;;;5.50;4.50;;;;;23.77;38.54;102171.13;5074254;28;49752;-71
2022/08/08 10:01:07;;;;;;;;;8.50;8.50;;;;;23.72;38.41;102156.84;5087980;28;49459;-72
2022/08/08 10:03:39;;;;;;;;;9.25;6.75;;;;;23.81;38.18;102169.28;5087170;28;50617;-71
2022/08/08 10:06:18;;;;;;;;;8.75;7.00;;;;;23.75;38.40;102146.13;5074552;28;49817;-71
2022/08/08 10:08:45;;;;;;;;;6.00;4.75;;;;;23.95;38.41;102167.31;5065025;27;50386;-71
2022/08/08 10:11:12;;;;;;;;;5.00;5.00;;;;;24.02;37.65;102168.13;5051513;28;49973;-73
2022/08/08 10:13:37;;;;;;;;;9.50;6.75;;;;;24.09;37.95;102162.66;5051644;28;49893;-72
2022/08/08 10:16:03;;;;;;;;;7.25;5.75;;;;;24.13;37.99;102169.78;5058913;28;49920;-72
2022/08/08 10:18:32;;;;;;;;;6.50;6.50;;;;;24.04;38.28;102150.22;5068057;28;49298;-72
2022/08/08 10:21:11;;;;;;;;;5.50;5.50;;;;;24.01;37.67;102135.03;5062510;28;49586;-75
2022/08/08 10:23:45;;;;;;;;;5.50;5.00;;;;;24.15;36.82;102154.53;5039514;28;51566;-72
2022/08/08 10:26:19;;;;;;;;;5.00;5.00;;;;;24.20;37.08;102152.66;5060603;28;49949;-81
2022/08/08 10:28:58;;;;;;;;;8.75;6.00;;;;;24.28;37.74;102149.88;5056873;28;49503;-75
2022/08/08 10:34:18;;;;;;;;;6.75;6.75;;;;;24.49;36.69;102143.34;5073108;28;49728;-74
2022/08/08 10:36:44;;;;;;;;;7.00;7.00;;;;;24.57;36.20;102143.22;5054772;28;49981;-73
2022/08/08 10:39:16;;;;;;;;;6.25;5.50;;;;;24.61;36.16;102150.31;5075229;28;49672;-67
2022/08/08 10:41:44;;;;;;;;;5.25;5.00;;;;;24.53;35.38;102145.09;5081055;28;49476;-71
2022/08/08 10:44:11;;;;;;;;;7.25;7.25;;;;;24.61;35.95;102148.56;5059937;28;49801;-72
2022/08/08 10:46:36;;;;;;;;;3.00;2.75;;;;;24.64;35.96;102150.28;5054673;28;49948;-68
2022/08/08 10:49:01;;;;;;;;;4.25;4.25;;;;;24.51;35.52;102118.28;5054216;28;49722;-68
2022/08/08 10:51:35;;;;;;;;;9.75;8.50;;;;;24.75;35.50;102145.63;5056281;28;49809;-68
2022/08/08 10:54:00;;;;;;;;;8.50;7.00;;;;;24.64;35.01;102110.00;5052154;28;49718;-73
2022/08/08 10:56:33;;;;;;;;;3.00;2.75;;;;;24.66;35.16;102127.88;5053936;28;49738;-67
2022/08/08 10:58:59;;;;;;;;;9.00;6.25;;;;;24.82;33.98;102152.69;5052343;28;49688;-67
2022/08/08 11:01:29;;;;;;;;;4.75;4.75;;;;;24.66;33.30;102124.31;5048069;28;50005;-69
2022/08/08 11:03:57;;;;;;;;;8.00;7.00;;;;;24.86;33.83;102140.09;5052409;28;49868;-69
2022/08/08 11:06:28;;;;;;;;;3.00;3.00;;;;;24.77;33.71;102123.19;5052701;28;49775;-71
2022/08/08 11:09:08;;;;;;;;;6.25;6.00;;;;;24.98;34.15;102118.38;5061402;28;49725;-71
2022/08/08 11:11:44;;;;;;;;;5.50;5.50;;;;;25.03;34.08;102120.13;5068507;28;49600;-77
2022/08/08 11:14:13;;;;;;;;;9.25;9.25;;;;;25.06;33.60;102112.00;5066009;28;50582;-70
2022/08/08 11:16:41;;;;;;;;;6.00;5.00;;;;;25.15;34.16;102123.50;5059236;28;49619;-85
2022/08/08 11:19:07;;;;;;;;;12.25;10.00;;;;;25.13;33.96;102120.84;5058890;28;49696;-76
2022/08/08 11:21:35;;;;;;;;;11.50;10.50;;;;;25.16;33.75;102123.47;5051912;28;50626;-73
2022/08/08 11:24:04;;;;;;;;;7.50;6.50;;;;;25.17;33.56;102135.09;5051707;28;50299;-69
2022/08/08 11:26:32;;;;;;;;;7.50;7.00;;;;;25.13;32.92;102128.91;5065764;28;49572;-70
2022/08/08 11:29:01;;;;;;;;;6.00;6.00;;;;;25.25;33.17;102122.41;5051224;28;50023;-70
2022/08/08 11:31:34;;;;;;;;;6.75;6.75;;;;;25.23;33.62;102102.75;5059452;28;50018;-66
2022/08/08 11:34:03;;;;;;;;;10.25;6.00;;;;;25.26;32.81;102111.63;5052648;28;50755;-67
2022/08/08 11:36:30;;;;;;;;;8.25;7.00;;;;;25.40;32.88;102117.63;5052413;28;49565;-69
2022/08/08 11:38:56;;;;;;;;;5.25;5.25;;;;;25.47;33.46;102115.69;5057101;28;49800;-69
2022/08/08 11:41:26;;;;;;;;;6.75;6.75;;;;;25.43;32.72;102099.66;5053043;28;49613;-71
2022/08/08 11:43:55;;;;;;;;;6.75;6.75;;;;;25.50;32.73;102107.59;5073512;28;51108;-69
2022/08/08 11:46:22;;;;;;;;;3.25;3.25;;;;;25.32;30.88;102091.81;5075470;28;49573;-68
2022/08/08 11:48:49;;;;;;;;;4.25;4.25;;;;;25.49;30.13;102105.81;5071208;28;50197;-71
2022/08/08 11:51:17;;;;;;;;;8.00;5.00;;;;;25.57;31.28;102105.63;5068045;27;49679;-68
2022/08/08 11:53:43;;;;;;;;;5.00;3.25;;;;;25.60;30.42;102106.47;5067136;28;49796;-72
2022/08/08 11:56:21;;;;;;;;;6.00;6.00;;;;;25.62;31.13;102110.03;5066508;27;49761;-74
2022/08/08 11:58:46;;;;;;;;;5.50;5.50;;;;;25.62;31.81;102083.13;5078113;28;49629;-69
2022/08/08 12:01:12;;;;;;;;;4.75;4.75;;;;;25.67;31.42;102097.38;5066768;28;49359;-67